Huvudsida
METAR-TAF:

METAR-TAF

Flygplatser :

Kashan, Iran

latitud: 33-59N, longitud: 051-27E, höjd: 982 m

Aktuellt väderrapport

Denna rapport gjordes för 17 minuter sedan, klockan 23:00 UTC
Vind 5 kt från nord/nordväst
Temperatur 19°C
Fuktighet 64%
Tryck 1026 hPa

METAR: OIFK 132300Z AUTO 34005KT //// // ////// 19/12 Q1026

Tid: 02:47 (23:17 UTC)


TAF: saknas

Aktuella väderrapporter och prognoser från 4000 flygplatser (METAR- och TAF-rapporter).

De tillgängliga stationerna syns som gula och röda prickar på kartan.

För musen över prickarna för att se namnen på stationerna.

Klicka sedan för att få väderrapporter och prognoser.

För att ändra kartan: Klicka på de gröna knapparna med ett svart kors på för att zooma in; den gröna knappen med ett streck på för att zooma ut; eller på de gröna pilarna för angränsande kartor.


METAR-TAF: